Time;durP1;ratioP1;P1;durP2;ratioP2;P2;SDS_P1;SDS_P2;PMS_P1;PMS_P2;Temp;Humidity;BMP_temperature;BMP_pressure;BME280_temperature;BME280_humidity;BME280_pressure;Samples;Min_cycle;Max_cycle;Signal;HPM_P1;HPM_P2
2022/06/11 00:00:20;;;;;;;16.60;8.55;;;;;;;;;;4982883;28;20406;-73
2022/06/11 00:02:45;;;;;;;12.52;8.02;;;;;;;;;;4980086;28;20465;-73
2022/06/11 00:05:10;;;;;;;8.80;7.90;;;;;;;;;;4986458;28;20026;-72
2022/06/11 00:07:36;;;;;;;12.88;8.05;;;;;;;;;;4989563;28;20299;-73
2022/06/11 00:10:02;;;;;;;13.52;8.68;;;;;;;;;;4986536;28;20038;-73
2022/06/11 00:12:27;;;;;;;14.40;9.35;;;;;;;;;;5001481;28;20022;-72
2022/06/11 00:14:53;;;;;;;15.80;9.90;;;;;;;;;;4981789;28;20019;-72
2022/06/11 00:17:20;;;;;;;14.75;10.00;;;;;;;;;;4976428;28;20460;-72
2022/06/11 00:19:45;;;;;;;17.00;10.05;;;;;;;;;;4979506;28;20049;-72
2022/06/11 00:22:11;;;;;;;15.55;10.02;;;;;;;;;;4976555;28;20026;-73
2022/06/11 00:24:38;;;;;;;17.17;9.52;;;;;;;;;;4979641;28;20030;-72
2022/06/11 00:27:03;;;;;;;14.75;9.07;;;;;;;;;;4979049;28;20146;-73
2022/06/11 00:29:30;;;;;;;25.73;9.80;;;;;;;;;;4980816;28;20047;-72
2022/06/11 00:31:55;;;;;;;12.27;8.15;;;;;;;;;;4976372;28;20026;-73
2022/06/11 00:34:21;;;;;;;14.32;7.25;;;;;;;;;;4981672;28;20037;-72
2022/06/11 00:36:46;;;;;;;10.90;7.40;;;;;;;;;;4978450;28;20384;-72
2022/06/11 00:39:13;;;;;;;10.38;7.00;;;;;;;;;;4985376;28;20026;-73
2022/06/11 00:41:41;;;;;;;9.50;6.80;;;;;;;;;;4982428;28;20030;-73
2022/06/11 00:44:06;;;;;;;23.05;7.55;;;;;;;;;;4982706;28;20037;-71
2022/06/11 00:46:54;;;;;;;11.30;6.77;;;;;;;;;;4982548;28;20026;-72
2022/06/11 00:49:22;;;;;;;9.07;6.20;;;;;;;;;;4986419;28;20053;-72
2022/06/11 00:51:48;;;;;;;10.45;6.03;;;;;;;;;;4977091;28;20022;-72
2022/06/11 00:54:15;;;;;;;9.15;6.90;;;;;;;;;;4981415;28;20057;-74
2022/06/11 00:56:44;;;;;;;10.43;5.97;;;;;;;;;;4983657;28;20508;-73
2022/06/11 00:59:10;;;;;;;14.60;6.72;;;;;;;;;;4991909;28;20077;-73
2022/06/11 01:01:36;;;;;;;10.95;6.07;;;;;;;;;;4985682;28;20096;-71
2022/06/11 01:04:02;;;;;;;9.52;6.03;;;;;;;;;;4983776;28;20416;-72
2022/06/11 01:06:32;;;;;;;9.23;5.63;;;;;;;;;;4994032;28;20034;-72
2022/06/11 01:09:03;;;;;;;8.07;6.05;;;;;;;;;;4991661;28;20411;-72
2022/06/11 01:11:31;;;;;;;9.57;5.55;;;;;;;;;;4994976;28;20068;-71
2022/06/11 01:14:14;;;;;;;11.10;5.28;;;;;;;;;;4984806;28;20026;-72
2022/06/11 01:16:49;;;;;;;9.20;5.45;;;;;;;;;;4999435;28;20549;-72
2022/06/11 01:19:33;;;;;;;9.70;5.72;;;;;;;;;;5003678;28;20308;-72
2022/06/11 01:21:58;;;;;;;6.90;6.20;;;;;;;;;;4989677;28;20022;-72
2022/06/11 01:24:23;;;;;;;10.18;5.28;;;;;;;;;;4996925;28;20034;-72
2022/06/11 01:27:07;;;;;;;7.93;6.07;;;;;;;;;;4982674;28;20030;-72
2022/06/11 01:29:48;;;;;;;7.97;6.20;;;;;;;;;;4983311;28;20271;-72
2022/06/11 01:32:32;;;;;;;10.75;5.97;;;;;;;;;;4978553;28;20068;-72
2022/06/11 01:35:12;;;;;;;7.65;5.95;;;;;;;;;;4999712;28;20373;-72
2022/06/11 01:38:03;;;;;;;10.43;6.57;;;;;;;;;;4981932;28;20054;-72
2022/06/11 01:40:42;;;;;;;16.73;6.95;;;;;;;;;;4974527;28;20042;-72
2022/06/11 01:43:12;;;;;;;13.93;7.00;;;;;;;;;;4986248;28;20480;-72
2022/06/11 01:45:38;;;;;;;11.15;7.32;;;;;;;;;;4988616;28;20022;-72
2022/06/11 01:48:04;;;;;;;11.90;7.35;;;;;;;;;;4980979;28;20374;-72
2022/06/11 01:50:31;;;;;;;11.43;6.72;;;;;;;;;;4978130;28;20030;-72
2022/06/11 01:53:02;;;;;;;16.13;8.23;;;;;;;;;;4980345;28;20476;-72
2022/06/11 01:55:38;;;;;;;11.32;7.93;;;;;;;;;;4995014;28;20085;-72
2022/06/11 01:58:18;;;;;;;13.23;7.70;;;;;;;;;;4993957;28;20041;-71
2022/06/11 02:00:51;;;;;;;17.13;9.43;;;;;;;;;;4982366;28;20426;-72
2022/06/11 02:03:26;;;;;;;12.05;7.63;;;;;;;;;;4991383;28;20077;-72
2022/06/11 02:06:10;;;;;;;13.35;7.97;;;;;;;;;;4981623;28;20461;-72
2022/06/11 02:08:35;;;;;;;12.13;8.65;;;;;;;;;;4981209;28;20421;-72
2022/06/11 02:11:07;;;;;;;14.40;8.63;;;;;;;;;;4982198;28;20137;-71
2022/06/11 02:13:35;;;;;;;9.98;8.68;;;;;;;;;;4982362;28;20477;-71
2022/06/11 02:16:21;;;;;;;14.40;8.85;;;;;;;;;;4980695;28;20041;-71
2022/06/11 02:18:48;;;;;;;14.55;7.80;;;;;;;;;;4979511;28;20041;-71
2022/06/11 02:21:14;;;;;;;17.13;8.77;;;;;;;;;;4978539;28;20193;-71
2022/06/11 02:23:42;;;;;;;15.50;7.93;;;;;;;;;;4979244;28;20049;-71
2022/06/11 02:26:09;;;;;;;15.35;8.25;;;;;;;;;;4979724;28;20378;-71
2022/06/11 02:28:39;;;;;;;15.45;8.82;;;;;;;;;;4979571;28;20757;-72
2022/06/11 02:31:05;;;;;;;13.57;8.30;;;;;;;;;;4978073;28;20076;-72
2022/06/11 02:33:32;;;;;;;12.73;8.25;;;;;;;;;;4986834;28;20110;-72
2022/06/11 02:36:00;;;;;;;15.95;9.75;;;;;;;;;;4979100;28;20308;-73
2022/06/11 02:38:27;;;;;;;13.15;8.43;;;;;;;;;;4980018;28;20042;-72
2022/06/11 02:40:54;;;;;;;12.90;7.75;;;;;;;;;;4982970;28;20037;-71
2022/06/11 02:43:20;;;;;;;12.23;7.95;;;;;;;;;;4983117;28;20038;-72
2022/06/11 02:45:45;;;;;;;10.55;7.43;;;;;;;;;;4983462;28;20037;-71
2022/06/11 02:48:11;;;;;;;11.23;7.43;;;;;;;;;;4984533;28;20053;-71
2022/06/11 02:50:36;;;;;;;10.77;6.25;;;;;;;;;;4982493;28;20058;-71
2022/06/11 02:53:03;;;;;;;8.95;6.68;;;;;;;;;;4984149;28;20045;-71
2022/06/11 02:55:28;;;;;;;12.68;5.93;;;;;;;;;;4979743;28;20101;-71
2022/06/11 02:57:54;;;;;;;13.25;6.68;;;;;;;;;;4988507;28;20105;-71
2022/06/11 03:00:21;;;;;;;9.00;5.82;;;;;;;;;;4981941;28;20598;-72
2022/06/11 03:02:48;;;;;;;8.88;5.75;;;;;;;;;;4986865;28;20560;-71
2022/06/11 03:05:14;;;;;;;9.00;5.60;;;;;;;;;;4987854;28;20022;-71
2022/06/11 03:07:39;;;;;;;11.32;5.70;;;;;;;;;;4991538;28;20376;-71
2022/06/11 03:10:05;;;;;;;7.22;5.50;;;;;;;;;;4989041;28;20028;-71
2022/06/11 03:12:30;;;;;;;8.73;5.53;;;;;;;;;;4989640;28;20508;-71
2022/06/11 03:14:55;;;;;;;9.50;5.97;;;;;;;;;;4985716;28;20481;-71
2022/06/11 03:17:21;;;;;;;10.40;5.50;;;;;;;;;;4982085;28;20675;-71
2022/06/11 03:19:46;;;;;;;6.82;5.55;;;;;;;;;;4997099;28;20472;-71
2022/06/11 03:22:11;;;;;;;8.10;5.88;;;;;;;;;;5011813;22;20382;-71
2022/06/11 03:24:36;;;;;;;9.02;5.35;;;;;;;;;;5025612;28;20076;-71
2022/06/11 03:27:02;;;;;;;9.93;5.07;;;;;;;;;;5020020;28;20033;-71
2022/06/11 03:29:27;;;;;;;10.35;5.60;;;;;;;;;;5017900;28;20363;-71
2022/06/11 03:31:53;;;;;;;8.10;5.87;;;;;;;;;;5015873;28;20028;-72
2022/06/11 03:34:19;;;;;;;9.27;5.80;;;;;;;;;;5020961;28;20782;-71
2022/06/11 03:36:45;;;;;;;9.18;5.70;;;;;;;;;;5016153;28;20033;-71
2022/06/11 03:39:12;;;;;;;11.95;6.00;;;;;;;;;;5022760;28;20063;-71
2022/06/11 03:41:38;;;;;;;12.00;5.90;;;;;;;;;;5016363;28;20727;-72
2022/06/11 03:44:03;;;;;;;10.50;5.53;;;;;;;;;;5019091;28;20456;-71
2022/06/11 03:46:29;;;;;;;7.18;5.20;;;;;;;;;;5013179;28;20348;-71
2022/06/11 03:48:54;;;;;;;10.23;5.40;;;;;;;;;;5022504;28;20690;-71
2022/06/11 03:51:19;;;;;;;9.20;5.20;;;;;;;;;;5017598;28;20025;-71
2022/06/11 03:53:45;;;;;;;12.77;5.18;;;;;;;;;;5017243;28;20056;-71
2022/06/11 03:56:11;;;;;;;9.05;4.60;;;;;;;;;;5018751;28;20037;-71
2022/06/11 03:58:37;;;;;;;11.25;4.97;;;;;;;;;;5018248;28;20494;-71
2022/06/11 04:01:16;;;;;;;9.15;5.00;;;;;;;;;;5020523;28;20026;-71
2022/06/11 04:03:42;;;;;;;9.65;4.93;;;;;;;;;;5017673;28;20026;-71
2022/06/11 04:06:07;;;;;;;11.57;5.15;;;;;;;;;;5001772;28;20030;-71
2022/06/11 04:08:32;;;;;;;10.60;5.07;;;;;;;;;;5023075;28;20097;-71
2022/06/11 04:10:59;;;;;;;10.40;4.93;;;;;;;;;;5017883;28;20749;-72
2022/06/11 04:13:24;;;;;;;7.13;4.60;;;;;;;;;;5021111;28;20048;-73
2022/06/11 04:15:50;;;;;;;8.38;4.53;;;;;;;;;;5023876;28;20425;-71
2022/06/11 04:18:36;;;;;;;15.13;5.18;;;;;;;;;;5022617;28;20037;-72
2022/06/11 04:21:03;;;;;;;8.05;4.53;;;;;;;;;;5001620;28;20405;-71
2022/06/11 04:23:30;;;;;;;4.97;3.95;;;;;;;;;;5021989;28;20025;-71
2022/06/11 04:25:56;;;;;;;5.93;4.03;;;;;;;;;;5023866;28;20472;-71
2022/06/11 04:28:22;;;;;;;11.30;5.00;;;;;;;;;;5020272;28;20403;-71
2022/06/11 04:30:47;;;;;;;7.78;4.32;;;;;;;;;;5019992;28;20029;-75
2022/06/11 04:33:12;;;;;;;9.20;4.45;;;;;;;;;;5023837;28;20108;-72
2022/06/11 04:35:37;;;;;;;8.53;4.20;;;;;;;;;;5023477;28;20253;-70
2022/06/11 04:38:02;;;;;;;23.57;6.90;;;;;;;;;;5022530;28;20048;-71
2022/06/11 04:40:28;;;;;;;9.37;4.23;;;;;;;;;;5023788;28;20025;-69
2022/06/11 04:42:53;;;;;;;10.00;4.25;;;;;;;;;;5024659;28;20317;-71
2022/06/11 04:45:18;;;;;;;8.43;4.60;;;;;;;;;;5024882;28;20294;-70
2022/06/11 04:47:44;;;;;;;7.97;3.85;;;;;;;;;;5021141;28;20557;-70
2022/06/11 04:50:09;;;;;;;9.80;5.13;;;;;;;;;;5022806;28;20414;-70
2022/06/11 04:52:34;;;;;;;5.68;4.22;;;;;;;;;;5020842;28;20396;-71
2022/06/11 04:54:59;;;;;;;6.97;4.23;;;;;;;;;;5026185;28;20029;-71
2022/06/11 04:57:25;;;;;;;8.47;3.93;;;;;;;;;;5025072;28;20341;-70
2022/06/11 04:59:50;;;;;;;9.07;4.13;;;;;;;;;;5025035;28;20661;-70
2022/06/11 05:02:16;;;;;;;6.97;4.10;;;;;;;;;;5023739;28;20083;-69
2022/06/11 05:04:41;;;;;;;9.82;4.20;;;;;;;;;;5025153;28;20022;-69
2022/06/11 05:07:06;;;;;;;6.97;3.90;;;;;;;;;;5019537;28;20036;-70
2022/06/11 05:09:33;;;;;;;6.87;3.60;;;;;;;;;;5026717;28;20025;-69
2022/06/11 05:11:58;;;;;;;13.15;4.32;;;;;;;;;;5028177;28;20654;-70
2022/06/11 05:14:24;;;;;;;8.73;4.20;;;;;;;;;;5027087;28;20148;-69
2022/06/11 05:16:49;;;;;;;7.75;4.20;;;;;;;;;;5025207;28;20274;-71
2022/06/11 05:19:16;;;;;;;11.20;4.20;;;;;;;;;;5025287;28;20367;-72
2022/06/11 05:21:41;;;;;;;12.30;3.60;;;;;;;;;;5024565;28;20111;-70
2022/06/11 05:24:08;;;;;;;5.85;3.35;;;;;;;;;;5025227;28;20215;-70
2022/06/11 05:26:36;;;;;;;9.18;3.10;;;;;;;;;;5016247;28;20022;-70
2022/06/11 05:29:01;;;;;;;11.48;3.55;;;;;;;;;;5023114;28;20494;-70
2022/06/11 05:31:26;;;;;;;13.65;3.55;;;;;;;;;;5017151;28;20038;-69
2022/06/11 05:33:51;;;;;;;9.48;3.47;;;;;;;;;;5024655;28;20104;-71
2022/06/11 05:36:19;;;;;;;10.52;3.22;;;;;;;;;;5024697;28;20163;-69
2022/06/11 05:38:44;;;;;;;7.10;2.60;;;;;;;;;;5019356;28;20460;-70
2022/06/11 05:41:09;;;;;;;8.47;2.90;;;;;;;;;;5025249;28;20422;-70
2022/06/11 05:43:34;;;;;;;7.28;2.50;;;;;;;;;;5024649;28;20036;-70
2022/06/11 05:46:07;;;;;;;11.07;2.63;;;;;;;;;;5022446;28;20022;-75
2022/06/11 05:48:37;;;;;;;9.77;2.70;;;;;;;;;;5026776;28;20026;-70
2022/06/11 05:51:04;;;;;;;9.13;2.35;;;;;;;;;;5027701;28;20101;-71
2022/06/11 05:53:32;;;;;;;10.43;2.30;;;;;;;;;;5023142;28;20025;-71
2022/06/11 05:55:58;;;;;;;10.80;2.85;;;;;;;;;;5024307;28;20405;-71
2022/06/11 05:58:26;;;;;;;10.98;2.60;;;;;;;;;;5017294;28;20033;-71
2022/06/11 06:00:52;;;;;;;16.48;2.88;;;;;;;;;;5000064;28;20039;-70
2022/06/11 06:03:17;;;;;;;12.77;2.70;;;;;;;;;;5015953;28;20034;-72
2022/06/11 06:05:42;;;;;;;7.10;2.38;;;;;;;;;;5023316;28;20017;-69
2022/06/11 06:08:07;;;;;;;13.70;2.60;;;;;;;;;;5025246;28;20031;-70
2022/06/11 06:10:33;;;;;;;7.75;2.53;;;;;;;;;;5021564;28;20024;-69
2022/06/11 06:12:58;;;;;;;14.98;2.58;;;;;;;;;;5020085;28;20040;-70
2022/06/11 06:15:24;;;;;;;15.13;2.63;;;;;;;;;;5029295;28;20021;-71
2022/06/11 06:17:50;;;;;;;11.23;2.97;;;;;;;;;;5022991;28;20806;-71
2022/06/11 06:20:16;;;;;;;9.40;3.92;;;;;;;;;;5018602;28;20021;-71
2022/06/11 06:22:42;;;;;;;10.20;2.80;;;;;;;;;;5025076;28;20044;-70
2022/06/11 06:25:10;;;;;;;15.98;3.05;;;;;;;;;;5028344;28;20029;-70
2022/06/11 06:27:35;;;;;;;10.43;3.17;;;;;;;;;;5018211;28;20021;-72
2022/06/11 06:30:01;;;;;;;13.07;2.70;;;;;;;;;;5024507;28;20067;-70
2022/06/11 06:32:26;;;;;;;10.50;2.80;;;;;;;;;;5024317;28;20028;-70
2022/06/11 06:34:51;;;;;;;16.80;2.90;;;;;;;;;;5023583;28;20644;-70
2022/06/11 06:37:16;;;;;;;17.07;2.57;;;;;;;;;;5005617;28;20056;-69
2022/06/11 06:39:41;;;;;;;11.50;3.08;;;;;;;;;;5021787;28;20259;-69
2022/06/11 06:42:07;;;;;;;11.73;3.50;;;;;;;;;;5026531;28;20151;-69
2022/06/11 06:44:33;;;;;;;10.93;3.17;;;;;;;;;;5021696;28;20282;-70
2022/06/11 06:46:58;;;;;;;15.20;3.47;;;;;;;;;;5018267;28;20487;-70
2022/06/11 06:49:24;;;;;;;10.18;3.38;;;;;;;;;;5018172;28;20057;-69
2022/06/11 06:51:49;;;;;;;14.35;3.15;;;;;;;;;;5015913;28;20033;-71
2022/06/11 06:54:14;;;;;;;16.25;3.38;;;;;;;;;;5016095;28;20033;-69
2022/06/11 06:56:39;;;;;;;16.20;3.03;;;;;;;;;;5016526;28;20025;-69
2022/06/11 06:59:05;;;;;;;12.53;3.47;;;;;;;;;;5024481;28;20060;-69
2022/06/11 07:01:30;;;;;;;13.57;2.33;;;;;;;;;;4999600;28;20289;-69
2022/06/11 07:03:56;;;;;;;8.10;2.65;;;;;;;;;;5019324;28;20453;-69
2022/06/11 07:06:22;;;;;;;15.05;2.70;;;;;;;;;;5020070;28;20498;-68
2022/06/11 07:08:51;;;;;;;13.73;3.47;;;;;;;;;;5014897;28;20108;-68
2022/06/11 07:11:16;;;;;;;11.90;3.22;;;;;;;;;;5016367;28;20347;-68
2022/06/11 07:13:41;;;;;;;13.75;3.17;;;;;;;;;;5014922;28;20605;-71
2022/06/11 07:16:06;;;;;;;13.30;2.95;;;;;;;;;;4998867;28;20029;-69
2022/06/11 07:18:40;;;;;;;12.40;2.70;;;;;;;;;;5015553;28;20033;-70
2022/06/11 07:21:07;;;;;;;8.52;2.63;;;;;;;;;;5016042;28;21943;-72
2022/06/11 07:23:35;;;;;;;12.02;2.67;;;;;;;;;;5014983;28;20037;-72
2022/06/11 07:26:02;;;;;;;14.65;2.92;;;;;;;;;;5019086;28;20451;-69
2022/06/11 07:28:33;;;;;;;14.95;3.28;;;;;;;;;;5012853;28;20067;-71
2022/06/11 07:30:59;;;;;;;13.27;2.97;;;;;;;;;;5015848;28;20067;-68
2022/06/11 07:33:25;;;;;;;16.27;3.08;;;;;;;;;;5013603;28;20414;-71
2022/06/11 07:35:51;;;;;;;13.75;3.25;;;;;;;;;;5014361;28;20033;-70
2022/06/11 07:38:17;;;;;;;15.65;2.75;;;;;;;;;;5015355;28;20857;-69
2022/06/11 07:40:42;;;;;;;13.02;2.67;;;;;;;;;;5015428;28;20037;-69
2022/06/11 07:43:08;;;;;;;15.80;2.90;;;;;;;;;;5018310;28;20025;-70
2022/06/11 07:45:33;;;;;;;9.85;2.17;;;;;;;;;;5013263;28;20033;-68
2022/06/11 07:47:59;;;;;;;14.60;2.50;;;;;;;;;;5019346;28;20025;-69
2022/06/11 07:50:29;;;;;;;13.00;2.88;;;;;;;;;;5017660;28;20010;-72
2022/06/11 07:52:54;;;;;;;14.35;2.92;;;;;;;;;;5015109;28;20029;-69
2022/06/11 07:55:20;;;;;;;11.25;2.58;;;;;;;;;;5014199;28;20547;-70
2022/06/11 07:57:45;;;;;;;11.32;2.55;;;;;;;;;;5022733;28;20410;-70
2022/06/11 08:00:13;;;;;;;11.80;2.47;;;;;;;;;;5015251;28;20040;-70
2022/06/11 08:02:38;;;;;;;8.23;2.50;;;;;;;;;;5018440;28;20284;-69
2022/06/11 08:05:04;;;;;;;11.25;2.42;;;;;;;;;;5017741;28;20483;-72
2022/06/11 08:07:29;;;;;;;13.25;2.45;;;;;;;;;;5013186;28;20037;-75
2022/06/11 08:09:57;;;;;;;22.20;2.42;;;;;;;;;;5015317;28;20025;-69
2022/06/11 08:12:22;;;;;;;14.27;2.17;;;;;;;;;;5013820;28;20475;-67
2022/06/11 08:14:48;;;;;;;8.93;2.10;;;;;;;;;;5015223;28;20021;-67
2022/06/11 08:17:13;;;;;;;13.53;2.70;;;;;;;;;;5016648;28;20357;-75
2022/06/11 08:19:38;;;;;;;13.23;2.40;;;;;;;;;;5017200;28;20022;-72
2022/06/11 08:22:03;;;;;;;15.88;2.78;;;;;;;;;;5015381;28;20562;-70
2022/06/11 08:24:28;;;;;;;11.43;2.80;;;;;;;;;;5012431;28;20041;-70
2022/06/11 08:26:53;;;;;;;15.95;2.63;;;;;;;;;;5014625;28;20021;-70
2022/06/11 08:29:19;;;;;;;8.20;2.37;;;;;;;;;;5012349;28;20025;-70
2022/06/11 08:31:44;;;;;;;16.38;2.55;;;;;;;;;;5012436;28;20417;-70
2022/06/11 08:34:09;;;;;;;13.23;3.07;;;;;;;;;;5013809;28;20026;-70
2022/06/11 08:36:34;;;;;;;13.82;3.33;;;;;;;;;;5014597;28;20270;-73
2022/06/11 08:38:59;;;;;;;12.63;2.70;;;;;;;;;;5013983;28;20075;-71
2022/06/11 08:41:30;;;;;;;17.90;3.10;;;;;;;;;;5017010;28;20021;-70
2022/06/11 08:43:58;;;;;;;12.30;2.92;;;;;;;;;;5014434;28;20033;-71
2022/06/11 08:46:25;;;;;;;11.23;2.45;;;;;;;;;;4997010;28;20040;-70
2022/06/11 08:48:57;;;;;;;11.18;3.20;;;;;;;;;;5015806;28;20480;-71
2022/06/11 08:51:22;;;;;;;24.15;3.33;;;;;;;;;;5015891;28;20056;-75
2022/06/11 08:53:49;;;;;;;14.10;2.45;;;;;;;;;;5017293;28;20030;-71
2022/06/11 08:56:24;;;;;;;14.75;3.22;;;;;;;;;;5013744;28;20063;-71
2022/06/11 08:58:50;;;;;;;11.10;2.58;;;;;;;;;;5002492;28;20048;-70
2022/06/11 09:01:23;;;;;;;14.85;3.20;;;;;;;;;;5007102;28;20033;-71
2022/06/11 09:03:49;;;;;;;12.43;3.47;;;;;;;;;;5004280;28;20432;-71
2022/06/11 09:06:14;;;;;;;18.38;3.05;;;;;;;;;;5003955;28;20356;-75
2022/06/11 09:08:48;;;;;;;12.10;3.10;;;;;;;;;;5005836;28;20021;-77
2022/06/11 09:11:33;;;;;;;12.65;3.55;;;;;;;;;;5004961;28;20025;-72
2022/06/11 09:14:17;;;;;;;11.85;3.10;;;;;;;;;;5001475;28;20026;-72
2022/06/11 09:16:54;;;;;;;8.30;2.75;;;;;;;;;;5007209;28;20430;-71
2022/06/11 09:19:34;;;;;;;12.57;2.75;;;;;;;;;;5002682;28;20539;-72
2022/06/11 09:22:18;;;;;;;14.48;3.60;;;;;;;;;;5006260;28;20033;-76
2022/06/11 09:25:02;;;;;;;11.10;2.53;;;;;;;;;;5008184;28;20029;-81
2022/06/11 09:27:30;;;;;;;17.70;3.22;;;;;;;;;;5003160;28;20026;-73
2022/06/11 09:29:58;;;;;;;11.65;2.63;;;;;;;;;;5007293;28;20033;-81
2022/06/11 09:32:26;;;;;;;13.77;3.17;;;;;;;;;;5005286;28;20017;-73
2022/06/11 09:34:53;;;;;;;11.68;3.03;;;;;;;;;;4994350;28;20032;-75
2022/06/11 09:37:23;;;;;;;11.68;2.92;;;;;;;;;;5007777;28;20033;-75
2022/06/11 09:40:03;;;;;;;12.23;2.85;;;;;;;;;;5008973;28;20619;-78
2022/06/11 09:42:35;;;;;;;14.93;3.08;;;;;;;;;;5009668;28;20037;-77
2022/06/11 09:45:00;;;;;;;14.05;2.90;;;;;;;;;;4986227;28;20029;-74
2022/06/11 09:47:32;;;;;;;15.85;3.75;;;;;;;;;;5007351;28;20109;-73
2022/06/11 09:50:01;;;;;;;13.73;3.40;;;;;;;;;;5000414;28;20022;-75
2022/06/11 09:52:32;;;;;;;18.23;2.90;;;;;;;;;;5004644;28;20075;-76
2022/06/11 09:55:00;;;;;;;12.32;2.78;;;;;;;;;;5002932;28;20400;-74
2022/06/11 09:57:30;;;;;;;15.70;3.10;;;;;;;;;;5011052;28;20549;-74
2022/06/11 10:00:02;;;;;;;13.00;2.88;;;;;;;;;;5007248;28;20021;-74
2022/06/11 10:02:36;;;;;;;11.18;2.78;;;;;;;;;;5005796;28;20051;-73
2022/06/11 10:05:05;;;;;;;13.30;2.78;;;;;;;;;;5007383;28;20773;-76
2022/06/11 10:07:32;;;;;;;10.88;2.60;;;;;;;;;;5005069;28;20023;-74
2022/06/11 10:10:01;;;;;;;12.52;3.40;;;;;;;;;;5004364;28;20034;-72
2022/06/11 10:12:49;;;;;;;15.93;2.95;;;;;;;;;;5005580;28;20095;-73
2022/06/11 10:15:16;;;;;;;11.60;2.33;;;;;;;;;;4991345;28;20094;-75
2022/06/11 10:17:54;;;;;;;17.40;2.85;;;;;;;;;;5002957;28;20133;-76
2022/06/11 10:20:34;;;;;;;12.45;2.45;;;;;;;;;;5005716;28;20032;-74
2022/06/11 10:23:08;;;;;;;12.60;3.00;;;;;;;;;;5005749;28;20484;-78
2022/06/11 10:25:48;;;;;;;17.25;3.03;;;;;;;;;;5005713;28;20030;-73
2022/06/11 10:28:17;;;;;;;10.30;2.60;;;;;;;;;;5003067;28;20018;-73
2022/06/11 10:30:42;;;;;;;14.45;3.15;;;;;;;;;;5007678;28;20156;-74
2022/06/11 10:33:23;;;;;;;11.43;2.67;;;;;;;;;;5000427;28;20129;-78
2022/06/11 10:35:53;;;;;;;15.77;2.90;;;;;;;;;;5002388;28;20038;-73
2022/06/11 10:38:26;;;;;;;15.18;2.70;;;;;;;;;;5007782;28;20022;-73
2022/06/11 10:40:51;;;;;;;15.13;2.95;;;;;;;;;;5007394;28;20035;-75
2022/06/11 10:43:22;;;;;;;11.90;2.70;;;;;;;;;;5000429;28;20056;-74
2022/06/11 10:45:48;;;;;;;16.00;2.65;;;;;;;;;;5004086;28;20025;-78
2022/06/11 10:48:18;;;;;;;11.77;2.95;;;;;;;;;;5000880;28;20132;-75
2022/06/11 10:50:45;;;;;;;11.95;3.22;;;;;;;;;;4999746;28;20033;-75
2022/06/11 10:53:23;;;;;;;15.25;3.60;;;;;;;;;;5005451;28;20027;-77
2022/06/11 10:55:48;;;;;;;11.55;3.15;;;;;;;;;;5000547;28;20029;-80
2022/06/11 10:58:22;;;;;;;12.88;2.90;;;;;;;;;;5005428;28;20029;-74
2022/06/11 11:00:50;;;;;;;18.80;3.33;;;;;;;;;;5000159;28;20140;-74
2022/06/11 11:03:39;;;;;;;16.33;3.10;;;;;;;;;;5008383;28;20053;-79
2022/06/11 11:06:08;;;;;;;25.05;4.18;;;;;;;;;;4998304;28;20026;-79
2022/06/11 11:08:34;;;;;;;8.73;2.88;;;;;;;;;;5005369;28;20125;-77
2022/06/11 11:11:00;;;;;;;13.57;2.90;;;;;;;;;;5004101;28;20022;-77
2022/06/11 11:13:36;;;;;;;18.08;3.45;;;;;;;;;;4995080;28;20030;-81
2022/06/11 11:16:15;;;;;;;11.45;3.22;;;;;;;;;;4998455;28;20021;-75
2022/06/11 11:18:48;;;;;;;13.45;3.13;;;;;;;;;;4994989;28;20022;-75
2022/06/11 11:21:28;;;;;;;19.80;4.25;;;;;;;;;;5002245;28;20116;-79
2022/06/11 11:23:55;;;;;;;14.27;3.80;;;;;;;;;;4997880;28;20027;-77
2022/06/11 11:26:28;;;;;;;14.40;3.63;;;;;;;;;;5001005;28;20036;-76
2022/06/11 11:28:56;;;;;;;18.65;3.33;;;;;;;;;;5000091;28;20392;-77
2022/06/11 11:31:24;;;;;;;8.77;2.60;;;;;;;;;;4984482;28;20540;-75
2022/06/11 11:33:57;;;;;;;13.75;3.63;;;;;;;;;;5001162;28;20419;-75
2022/06/11 11:36:25;;;;;;;11.25;3.05;;;;;;;;;;4994487;28;20034;-78
2022/06/11 11:39:08;;;;;;;11.68;2.70;;;;;;;;;;4994415;28;20331;-73
2022/06/11 11:41:34;;;;;;;14.25;3.45;;;;;;;;;;4994543;28;20062;-75
2022/06/11 11:44:00;;;;;;;17.17;3.50;;;;;;;;;;4996053;28;20030;-80
2022/06/11 11:46:30;;;;;;;14.90;3.33;;;;;;;;;;5005279;28;20380;-80
2022/06/11 11:48:57;;;;;;;14.15;3.17;;;;;;;;;;5000102;28;20029;-74
2022/06/11 11:51:27;;;;;;;18.05;3.45;;;;;;;;;;4991410;28;20017;-76
2022/06/11 11:54:00;;;;;;;14.93;3.10;;;;;;;;;;5004979;28;20026;-75
2022/06/11 11:56:26;;;;;;;13.85;3.60;;;;;;;;;;4997300;28;20473;-76
2022/06/11 11:58:53;;;;;;;14.63;3.67;;;;;;;;;;5000522;28;20398;-75
2022/06/11 12:01:18;;;;;;;13.73;2.85;;;;;;;;;;5003075;28;20044;-75
2022/06/11 12:03:47;;;;;;;14.70;3.53;;;;;;;;;;5002271;28;20026;-75
2022/06/11 12:06:13;;;;;;;10.27;2.90;;;;;;;;;;5012021;28;20263;-78
2022/06/11 12:08:47;;;;;;;13.00;3.25;;;;;;;;;;5000501;28;20201;-74
2022/06/11 12:11:12;;;;;;;;;;;;;;;;;;4999362;28;20473;-76
2022/06/11 12:13:40;;;;;;;10.65;2.78;;;;;;;;;;4998476;28;20477;-81
2022/06/11 12:16:06;;;;;;;14.93;3.28;;;;;;;;;;4998626;28;20476;-75
2022/06/11 12:18:43;;;;;;;18.58;3.20;;;;;;;;;;5007719;28;20108;-81
2022/06/11 12:21:12;;;;;;;13.65;2.72;;;;;;;;;;4982632;28;20031;-76
2022/06/11 12:23:40;;;;;;;14.57;3.13;;;;;;;;;;5005622;28;20026;-75
2022/06/11 12:26:18;;;;;;;15.65;3.13;;;;;;;;;;5001164;28;20113;-79
2022/06/11 12:28:52;;;;;;;10.60;2.97;;;;;;;;;;4997092;28;20640;-80
2022/06/11 12:31:18;;;;;;;11.23;2.50;;;;;;;;;;4998711;28;20108;-82
2022/06/11 12:33:44;;;;;;;11.20;2.40;;;;;;;;;;5008065;28;20093;-77
2022/06/11 12:36:28;;;;;;;11.90;2.92;;;;;;;;;;5001069;28;20528;-75
2022/06/11 12:39:01;;;;;;;12.40;3.33;;;;;;;;;;5001160;28;20044;-75
2022/06/11 12:41:26;;;;;;;10.18;2.53;;;;;;;;;;5003571;28;20105;-76
2022/06/11 12:44:26;;;;;;;15.07;2.92;;;;;;;;;;5005160;28;20030;-74
2022/06/11 12:46:55;;;;;;;9.43;2.75;;;;;;;;;;5000442;28;20267;-76
2022/06/11 12:49:22;;;;;;;17.35;2.85;;;;;;;;;;5007955;28;20532;-76
2022/06/11 12:52:03;;;;;;;14.43;3.30;;;;;;;;;;5009703;28;20029;-75
2022/06/11 12:54:35;;;;;;;10.18;3.13;;;;;;;;;;5012040;28;20033;-76
2022/06/11 12:57:30;;;;;;;9.43;3.15;;;;;;;;;;5008920;28;20153;-77
2022/06/11 13:00:04;;;;;;;14.00;3.50;;;;;;;;;;4949248;28;20122;-80
2022/06/11 13:02:29;;;;;;;11.65;3.08;;;;;;;;;;4999450;28;20022;-76
2022/06/11 13:05:06;;;;;;;15.13;3.33;;;;;;;;;;5007404;28;20029;-75
2022/06/11 13:07:50;;;;;;;12.60;2.90;;;;;;;;;;5001677;28;20026;-77
2022/06/11 13:10:34;;;;;;;11.32;3.20;;;;;;;;;;5005712;28;20053;-79
2022/06/11 13:13:18;;;;;;;7.50;2.55;;;;;;;;;;4999083;28;20014;-77
2022/06/11 13:15:56;;;;;;;12.55;3.60;;;;;;;;;;5003437;28;20034;-79
2022/06/11 13:18:24;;;;;;;12.45;2.72;;;;;;;;;;4998530;28;20025;-78
2022/06/11 13:20:55;;;;;;;13.65;3.53;;;;;;;;;;5002054;28;20738;-76
2022/06/11 13:23:20;;;;;;;15.43;3.78;;;;;;;;;;4998528;28;20051;-77
2022/06/11 13:25:52;;;;;;;13.13;3.15;;;;;;;;;;5003359;28;20022;-73
2022/06/11 13:28:24;;;;;;;13.40;4.53;;;;;;;;;;4998816;28;20034;-77
2022/06/11 13:30:54;;;;;;;10.38;3.20;;;;;;;;;;5003524;28;20033;-75
2022/06/11 13:33:22;;;;;;;12.25;3.83;;;;;;;;;;5002974;28;20469;-75
2022/06/11 13:35:57;;;;;;;11.27;3.83;;;;;;;;;;4996403;28;20030;-76
2022/06/11 13:38:30;;;;;;;11.63;3.80;;;;;;;;;;5001811;28;20029;-74
2022/06/11 13:41:10;;;;;;;7.95;3.05;;;;;;;;;;5000924;28;20026;-75
2022/06/11 13:43:38;;;;;;;10.60;3.75;;;;;;;;;;5002592;28;20590;-80
2022/06/11 13:46:27;;;;;;;11.48;4.00;;;;;;;;;;4998524;28;20080;-76
2022/06/11 13:49:04;;;;;;;12.65;3.67;;;;;;;;;;4975038;28;20036;-77
2022/06/11 13:51:30;;;;;;;11.60;3.78;;;;;;;;;;4995858;28;20069;-79
2022/06/11 13:56:52;;;;;;;9.65;3.80;;;;;;;;;;5000531;28;20064;-73
2022/06/11 13:59:23;;;;;;;12.93;3.70;;;;;;;;;;4999403;28;20048;-74
2022/06/11 14:02:09;;;;;;;12.60;4.18;;;;;;;;;;5003553;28;20065;-74
2022/06/11 14:04:36;;;;;;;11.50;3.58;;;;;;;;;;5000648;28;20109;-72
2022/06/11 14:07:04;;;;;;;14.68;3.95;;;;;;;;;;5002632;28;20437;-74
2022/06/11 14:12:33;;;;;;;20.08;4.18;;;;;;;;;;5005719;28;20025;-74
2022/06/11 14:15:17;;;;;;;11.60;3.90;;;;;;;;;;5001349;28;20491;-75
2022/06/11 14:17:42;;;;;;;10.20;4.20;;;;;;;;;;4998091;28;20024;-78
2022/06/11 14:20:22;;;;;;;10.23;3.70;;;;;;;;;;4997158;28;20022;-78
2022/06/11 14:22:52;;;;;;;11.27;4.53;;;;;;;;;;4985652;28;20633;-78
2022/06/11 14:25:31;;;;;;;13.82;4.30;;;;;;;;;;5003859;28;20041;-76
2022/06/11 14:27:56;;;;;;;13.57;4.00;;;;;;;;;;5002431;28;20025;-74
2022/06/11 14:30:24;;;;;;;11.70;4.27;;;;;;;;;;4998283;28;20029;-81
2022/06/11 14:32:58;;;;;;;13.35;4.28;;;;;;;;;;5003061;28;20010;-77
2022/06/11 14:35:26;;;;;;;12.32;4.05;;;;;;;;;;4984948;28;20405;-76
2022/06/11 14:37:51;;;;;;;12.43;3.85;;;;;;;;;;5003170;28;20052;-77
2022/06/11 14:40:18;;;;;;;13.57;3.73;;;;;;;;;;4994609;28;20021;-75
2022/06/11 14:43:15;;;;;;;10.40;3.80;;;;;;;;;;5000453;28;20343;-77
2022/06/11 14:45:41;;;;;;;8.77;3.60;;;;;;;;;;4966142;28;20116;-77
2022/06/11 14:48:11;;;;;;;9.75;3.40;;;;;;;;;;4999930;28;20437;-75
2022/06/11 14:50:53;;;;;;;12.40;3.65;;;;;;;;;;4999409;28;20033;-75